Time;durP1;ratioP1;P1;durP2;ratioP2;P2;SDS_P1;SDS_P2;PMS_P1;PMS_P2;Temp;Humidity;BMP_temperature;BMP_pressure;BME280_temperature;BME280_humidity;BME280_pressure;Samples;Min_cycle;Max_cycle;Signal;HPM_P1;HPM_P2
2023/05/15 00:00:58;;;;;;;18.90;8.60;;;;;;;9.44;100.00;101320.96;105667;1260;76221;-51
2023/05/15 00:03:26;;;;;;;20.30;8.20;;;;;;;9.45;100.00;101315.09;105662;1258;66172;-51
2023/05/15 00:05:53;;;;;;;25.10;8.70;;;;;;;9.45;100.00;101313.04;105652;1254;74649;-51
2023/05/15 00:08:20;;;;;;;26.00;8.30;;;;;;;9.42;100.00;101310.11;105657;1253;64288;-53
2023/05/15 00:10:47;;;;;;;17.90;8.80;;;;;;;9.40;100.00;101310.63;105704;1253;62704;-52
2023/05/15 00:13:27;;;;;;;18.10;8.00;;;;;;;9.37;100.00;101310.13;105650;1253;75277;-52
2023/05/15 00:15:54;;;;;;;18.50;7.90;;;;;;;9.35;100.00;101310.11;105684;1254;67397;-52
2023/05/15 00:18:21;;;;;;;23.30;8.20;;;;;;;9.33;100.00;101308.55;105676;1253;73990;-52
2023/05/15 00:20:48;;;;;;;25.00;7.50;;;;;;;9.34;100.00;101307.36;105639;1253;64353;-52
2023/05/15 00:23:15;;;;;;;16.90;8.40;;;;;;;9.32;100.00;101304.94;105646;1254;63065;-52
2023/05/15 00:25:42;;;;;;;21.50;8.20;;;;;;;9.30;100.00;101303.05;105660;1258;76520;-51
2023/05/15 00:28:09;;;;;;;15.20;7.10;;;;;;;9.28;100.00;101297.38;105664;1254;67166;-52
2023/05/15 00:30:36;;;;;;;17.70;7.90;;;;;;;9.25;100.00;101298.23;105660;1258;74426;-51
2023/05/15 00:33:03;;;;;;;17.50;7.20;;;;;;;9.24;100.00;101298.75;105667;1259;63556;-52
2023/05/15 00:35:31;;;;;;;17.30;7.20;;;;;;;9.26;100.00;101300.64;105673;1260;61628;-52
2023/05/15 00:37:58;;;;;;;14.20;6.60;;;;;;;9.28;100.00;101300.30;105681;1258;76270;-52
2023/05/15 00:40:25;;;;;;;13.20;6.50;;;;;;;9.32;100.00;101294.77;105686;1258;66095;-53
2023/05/15 00:42:52;;;;;;;11.60;6.70;;;;;;;9.39;100.00;101290.14;105642;1258;75163;-52
2023/05/15 00:45:19;;;;;;;11.80;6.30;;;;;;;9.41;100.00;101286.67;105673;1258;60488;-52
2023/05/15 00:47:46;;;;;;;12.50;6.90;;;;;;;9.38;100.00;101282.02;105698;1259;62697;-52
2023/05/15 00:50:13;;;;;;;11.90;6.70;;;;;;;9.37;100.00;101280.32;105658;1254;75073;-52
2023/05/15 00:52:40;;;;;;;12.50;6.70;;;;;;;9.33;100.00;101280.30;105608;1260;66511;-52
2023/05/15 00:55:08;;;;;;;13.10;7.10;;;;;;;9.32;100.00;101279.62;105643;1253;75427;-52
2023/05/15 00:57:34;;;;;;;17.00;6.50;;;;;;;9.29;100.00;101276.69;105640;1255;63368;-52
2023/05/15 01:00:09;;;;;;;10.50;6.20;;;;;;;9.24;100.00;101272.91;105638;1259;61631;-54
2023/05/15 01:02:36;;;;;;;14.40;6.70;;;;;;;9.23;100.00;101272.73;105669;1259;76557;-53
2023/05/15 01:05:06;;;;;;;13.30;6.10;;;;;;;9.20;100.00;101268.77;105644;1259;66144;-54
2023/05/15 01:07:36;;;;;;;17.00;6.20;;;;;;;9.27;100.00;101262.58;105560;1256;73254;-52
2023/05/15 01:10:03;;;;;;;9.40;5.90;;;;;;;9.31;100.00;101253.80;105803;1257;63493;-51
2023/05/15 01:12:31;;;;;;;6.90;5.60;;;;;;;9.31;100.00;101247.41;105881;1253;60700;-54
2023/05/15 01:14:58;;;;;;;9.70;5.70;;;;;;;9.32;100.00;101246.21;105845;1257;76517;-56
2023/05/15 01:17:26;;;;;;;10.40;5.50;;;;;;;9.37;100.00;101245.52;105473;1254;65550;-53
2023/05/15 01:19:53;;;;;;;9.80;5.40;;;;;;;9.36;100.00;101242.92;105786;1253;74992;-52
2023/05/15 01:22:34;;;;;;;8.80;6.20;;;;;;;9.31;100.00;101240.54;105740;1255;61527;-53
2023/05/15 01:25:10;;;;;;;9.80;5.60;;;;;;;9.24;100.00;101240.02;105861;1254;62200;-51
2023/05/15 01:27:53;;;;;;;10.60;5.40;;;;;;;9.17;100.00;101240.70;105674;1257;76538;-52
2023/05/15 01:30:33;;;;;;;7.30;5.10;;;;;;;9.08;100.00;101242.42;105878;1253;66211;-53
2023/05/15 01:33:04;;;;;;;7.90;5.00;;;;;;;9.00;100.00;101242.26;105882;1254;75305;-50
2023/05/15 01:35:42;;;;;;;12.30;5.60;;;;;;;8.93;100.00;101240.34;105881;1252;63360;-50
2023/05/15 01:38:09;;;;;;;7.70;5.40;;;;;;;8.85;100.00;101239.65;105698;1258;62758;-51
2023/05/15 01:40:37;;;;;;;7.90;4.80;;;;;;;8.77;100.00;101237.91;105914;1256;75308;-52
2023/05/15 01:43:08;;;;;;;11.20;5.30;;;;;;;8.71;100.00;101236.18;105686;1254;68020;-51
2023/05/15 01:45:36;;;;;;;12.60;5.90;;;;;;;8.69;100.00;101236.17;105920;1253;75194;-52
2023/05/15 01:48:06;;;;;;;5.90;4.70;;;;;;;8.65;100.00;101232.21;105868;1257;64639;-52
2023/05/15 01:50:33;;;;;;;9.80;5.50;;;;;;;8.65;100.00;101231.17;105933;1257;61986;-52
2023/05/15 01:53:01;;;;;;;7.70;5.50;;;;;;;8.63;100.00;101226.37;105806;1253;76799;-52
2023/05/15 01:55:28;;;;;;;9.40;5.30;;;;;;;8.65;100.00;101224.81;105679;1257;67478;-52
2023/05/15 01:57:56;;;;;;;9.80;5.50;;;;;;;8.66;100.00;101226.71;105715;1254;73853;-52
2023/05/15 02:00:23;;;;;;;9.90;5.10;;;;;;;8.65;100.00;101228.42;105868;1253;62903;-52
2023/05/15 02:02:50;;;;;;;14.50;6.20;;;;;;;8.59;100.00;101235.47;105882;1253;62509;-52
2023/05/15 02:05:17;;;;;;;18.30;6.90;;;;;;;8.52;100.00;101234.24;105693;1254;75340;-52
2023/05/15 02:07:45;;;;;;;14.90;6.50;;;;;;;8.45;100.00;101230.06;105691;1254;67164;-52
2023/05/15 02:10:14;;;;;;;14.60;6.30;;;;;;;8.43;100.00;101227.30;105725;1258;74902;-52
2023/05/15 02:12:45;;;;;;;10.50;6.30;;;;;;;8.39;100.00;101222.83;105876;1254;62831;-52
2023/05/15 02:15:12;;;;;;;11.60;6.00;;;;;;;8.38;100.00;101225.75;105883;1254;63003;-52
2023/05/15 02:17:39;;;;;;;17.20;6.80;;;;;;;8.36;100.00;101220.59;105647;1260;76492;-52
2023/05/15 02:20:07;;;;;;;11.50;6.30;;;;;;;8.33;100.00;101217.14;105715;1259;67478;-52
2023/05/15 02:22:36;;;;;;;15.30;7.40;;;;;;;8.34;100.00;101217.48;105914;1254;73293;-53
2023/05/15 02:25:04;;;;;;;19.20;7.00;;;;;;;8.42;100.00;101219.05;105781;1254;64156;-51
2023/05/15 02:27:46;;;;;;;16.30;7.50;;;;;;;8.46;100.00;101216.48;105765;1257;61893;-52
2023/05/15 02:30:29;;;;;;;15.20;7.00;;;;;;;8.52;100.00;101216.86;105862;1253;76016;-52
2023/05/15 02:33:15;;;;;;;13.10;7.00;;;;;;;8.61;100.00;101213.80;105798;1253;67308;-52
2023/05/15 02:35:48;;;;;;;16.70;6.80;;;;;;;8.68;100.00;101213.30;105926;1256;75266;-52
2023/05/15 02:38:15;;;;;;;17.60;6.00;;;;;;;8.75;100.00;101210.90;105839;1254;63710;-52
2023/05/15 02:40:43;;;;;;;15.30;7.70;;;;;;;8.86;100.00;101210.38;105846;1256;62629;-52
2023/05/15 02:43:11;;;;;;;17.10;7.30;;;;;;;8.98;100.00;101208.67;105881;1254;76011;-52
2023/05/15 02:45:38;;;;;;;11.10;6.50;;;;;;;9.04;100.00;101204.53;105701;1253;66121;-53
2023/05/15 02:48:05;;;;;;;19.70;6.70;;;;;;;9.09;100.00;101204.37;105811;1256;74135;-52
2023/05/15 02:50:33;;;;;;;15.80;6.50;;;;;;;9.14;100.00;101208.67;105718;1257;64486;-52
2023/05/15 02:53:01;;;;;;;12.80;6.70;;;;;;;9.17;100.00;101210.22;105677;1253;63023;-52
2023/05/15 02:55:28;;;;;;;11.10;6.20;;;;;;;9.19;100.00;101208.14;105847;1253;76275;-52
2023/05/15 02:57:56;;;;;;;9.90;5.90;;;;;;;9.20;100.00;101206.25;105716;1258;66610;-52
2023/05/15 03:00:23;;;;;;;18.00;6.40;;;;;;;9.20;100.00;101203.66;105942;1257;75363;-52
2023/05/15 03:02:50;;;;;;;10.00;5.80;;;;;;;9.23;100.00;101205.05;105826;1253;64493;-52
2023/05/15 03:05:17;;;;;;;15.00;6.10;;;;;;;9.27;100.00;101204.36;105882;1253;62886;-52
2023/05/15 03:07:44;;;;;;;13.80;5.90;;;;;;;9.32;100.00;101199.01;105774;1257;76327;-52
2023/05/15 03:10:11;;;;;;;13.40;6.40;;;;;;;9.38;100.00;101203.65;105831;1254;67087;-53
2023/05/15 03:12:38;;;;;;;12.70;5.60;;;;;;;9.43;100.00;101202.95;105821;1256;73202;-52
2023/05/15 03:15:06;;;;;;;10.90;6.00;;;;;;;9.50;100.00;101204.50;105839;1254;60994;-53
2023/05/15 03:17:33;;;;;;;13.30;6.10;;;;;;;9.58;100.00;101207.58;105842;1253;62453;-52
2023/05/15 03:20:00;;;;;;;10.10;6.00;;;;;;;9.67;100.00;101207.90;105814;1253;75551;-52
2023/05/15 03:22:27;;;;;;;9.80;5.50;;;;;;;9.78;100.00;101206.16;105789;1257;66105;-52
2023/05/15 03:24:54;;;;;;;8.50;5.90;;;;;;;9.89;100.00;101202.31;105678;1253;75456;-53
2023/05/15 03:27:21;;;;;;;13.60;4.70;;;;;;;9.99;100.00;101205.03;105893;1252;63773;-52
2023/05/15 03:29:49;;;;;;;11.60;5.50;;;;;;;10.10;100.00;101208.95;105825;1253;61501;-53
2023/05/15 03:32:17;;;;;;;9.90;5.20;;;;;;;10.22;100.00;101207.53;105745;1252;75307;-53
2023/05/15 03:34:44;;;;;;;9.10;5.60;;;;;;;10.34;100.00;101205.91;105790;1254;66231;-52
2023/05/15 03:37:11;;;;;;;12.30;5.30;;;;;;;10.50;100.00;101207.06;105807;1257;75241;-53
2023/05/15 03:39:38;;;;;;;13.10;4.90;;;;;;;10.65;100.00;101204.55;105877;1254;63777;-52
2023/05/15 03:42:05;;;;;;;13.70;5.10;;;;;;;10.81;100.00;101204.10;105864;1253;62284;-52
2023/05/15 03:44:32;;;;;;;15.80;5.50;;;;;;;10.98;100.00;101202.58;105914;1254;75291;-53
2023/05/15 03:46:59;;;;;;;16.60;5.20;;;;;;;11.18;100.00;101200.51;105888;1253;67580;-53
2023/05/15 03:49:27;;;;;;;13.70;6.10;;;;;;;11.41;100.00;101204.27;105788;1254;73073;-53
2023/05/15 03:51:55;;;;;;;18.40;4.80;;;;;;;11.74;100.00;101203.40;105786;1257;63846;-53
2023/05/15 03:54:22;;;;;;;15.60;5.00;;;;;;;12.13;100.00;101201.74;105733;1254;62076;-53
2023/05/15 03:56:50;;;;;;;15.10;5.30;;;;;;;12.53;100.00;101198.95;105910;1256;76253;-53
2023/05/15 03:59:17;;;;;;;13.50;5.10;;;;;;;12.95;100.00;101199.52;105896;1253;67327;-53
2023/05/15 04:01:44;;;;;;;15.50;4.50;;;;;;;13.37;100.00;101206.60;105952;1254;73163;-52
2023/05/15 04:04:29;;;;;;;12.10;4.20;;;;;;;13.72;100.00;101209.98;105883;1253;61812;-52
2023/05/15 04:06:56;;;;;;;11.10;4.30;;;;;;;13.92;100.00;101214.42;105837;1254;62979;-51
2023/05/15 04:09:23;;;;;;;14.00;3.50;;;;;;;14.11;100.00;101226.70;105803;1257;76658;-51
2023/05/15 04:11:50;;;;;;;14.60;3.90;;;;;;;14.30;100.00;101242.28;105823;1253;66509;-53
2023/05/15 04:14:17;;;;;;;9.00;3.60;;;;;;;14.49;100.00;101262.02;105965;1253;75196;-51
2023/05/15 04:16:44;;;;;;;14.00;3.90;;;;;;;14.66;100.00;101291.70;105902;1252;63089;-52
2023/05/15 04:19:11;;;;;;;10.00;3.60;;;;;;;14.84;100.00;101333.20;105827;1257;62102;-52
2023/05/15 04:21:39;;;;;;;9.90;3.80;;;;;;;15.02;100.00;101395.55;105825;1257;75642;-52
2023/05/15 04:24:06;;;;;;;11.70;4.30;;;;;;;15.20;100.00;101490.75;105842;1253;67012;-52
2023/05/15 04:26:33;;;;;;;16.40;5.30;;;;;;;15.38;100.00;101567.42;105675;1253;75105;-53
2023/05/15 04:29:01;;;;;;;11.30;5.60;;;;;;;15.54;100.00;101506.72;105618;1254;60791;-52
2023/05/15 04:31:30;;;;;;;16.70;6.10;;;;;;;15.70;100.00;101249.21;105786;1257;62306;-53
2023/05/15 04:33:58;;;;;;;16.00;8.60;;;;;;;15.87;100.00;100962.13;105819;1253;75387;-55
2023/05/15 04:36:25;;;;;;;23.00;9.60;;;;;;;16.03;100.00;100749.27;105826;1253;67511;-51
2023/05/15 04:38:52;;;;;;;21.20;8.80;;;;;;;16.21;100.00;100705.79;105932;1254;75216;-51
2023/05/15 04:41:19;;;;;;;17.20;8.30;;;;;;;16.33;100.00;100746.77;105921;1255;61604;-51
2023/05/15 04:43:46;;;;;;;28.60;8.90;;;;;;;16.46;100.00;100787.94;105907;1253;63002;-51
2023/05/15 04:46:14;;;;;;;29.80;8.80;;;;;;;16.60;100.00;100820.67;105871;1257;76680;-51
2023/05/15 04:48:41;;;;;;;19.50;8.90;;;;;;;16.76;100.00;100850.02;105749;1255;66250;-51
2023/05/15 04:51:08;;;;;;;23.20;8.60;;;;;;;16.93;100.00;100869.26;105792;1253;74381;-50
2023/05/15 04:53:35;;;;;;;13.90;8.30;;;;;;;17.09;100.00;100901.29;105947;1254;62183;-51
2023/05/15 04:56:02;;;;;;;38.20;8.40;;;;;;;17.23;100.00;100927.24;105904;1256;62069;-51
2023/05/15 04:58:29;;;;;;;23.10;8.90;;;;;;;17.38;100.00;100944.30;105894;1254;76040;-51
2023/05/15 05:00:57;;;;;;;28.00;9.30;;;;;;;17.60;100.00;100942.40;105811;1253;67488;-51
2023/05/15 05:03:24;;;;;;;16.50;7.80;;;;;;;17.86;100.00;100953.19;105780;1253;74364;-51
2023/05/15 05:05:51;;;;;;;28.90;8.40;;;;;;;18.07;100.00;100980.49;105825;1256;61506;-51
2023/05/15 05:08:18;;;;;;;20.70;7.80;;;;;;;18.23;100.00;100997.99;105779;1253;62797;-51
2023/05/15 05:10:45;;;;;;;26.90;7.80;;;;;;;18.44;100.00;101006.55;105769;1257;77174;-51
2023/05/15 05:13:11;;;;;;;26.60;8.60;;;;;;;18.64;100.00;101021.23;105803;1253;66581;-51
2023/05/15 05:15:39;;;;;;;24.40;9.00;;;;;;;18.93;100.00;101033.08;105788;1257;75070;-51
2023/05/15 05:18:05;;;;;;;17.70;7.10;;;;;;;19.20;100.00;101037.36;105781;1256;62883;-51
2023/05/15 05:20:33;;;;;;;20.20;7.20;;;;;;;19.40;100.00;101048.66;105800;1253;63309;-51
2023/05/15 05:23:00;;;;;;;19.50;7.30;;;;;;;19.62;99.10;101048.39;105926;1256;76252;-51
2023/05/15 05:25:27;;;;;;;22.80;6.80;;;;;;;19.71;91.52;101060.58;105908;1253;67267;-51
2023/05/15 05:27:53;;;;;;;35.80;7.30;;;;;;;19.77;89.11;101081.10;105779;1257;75188;-51
2023/05/15 05:30:21;;;;;;;15.50;6.30;;;;;;;19.91;82.56;101071.90;105904;1253;62970;-51
2023/05/15 05:32:48;;;;;;;19.90;7.40;;;;;;;20.03;77.59;101074.46;105930;1256;61731;-51
2023/05/15 05:35:15;;;;;;;22.70;6.60;;;;;;;20.21;76.82;101083.95;105905;1253;75317;-51
2023/05/15 05:37:42;;;;;;;23.40;6.40;;;;;;;20.46;74.89;101077.98;105784;1253;66508;-51
2023/05/15 05:40:10;;;;;;;27.20;6.60;;;;;;;20.65;71.51;101062.66;105763;1257;75417;-55
2023/05/15 05:42:37;;;;;;;24.30;7.00;;;;;;;20.73;67.79;101057.34;105816;1254;61790;-55
2023/05/15 05:45:05;;;;;;;22.10;7.10;;;;;;;20.79;67.10;101076.88;105744;1257;61553;-52
2023/05/15 05:47:32;;;;;;;35.10;6.60;;;;;;;20.88;66.06;101065.58;105797;1256;75337;-54
2023/05/15 05:49:59;;;;;;;27.20;7.40;;;;;;;21.01;64.99;101061.88;105766;1253;66802;-52
2023/05/15 05:52:28;;;;;;;20.10;6.60;;;;;;;21.16;64.38;101068.14;105889;1253;75405;-53
2023/05/15 05:54:55;;;;;;;23.00;6.70;;;;;;;21.25;63.42;101065.88;105925;1253;62794;-53
2023/05/15 05:57:22;;;;;;;17.90;6.90;;;;;;;21.33;62.74;101058.97;105895;1253;62856;-55
2023/05/15 05:59:49;;;;;;;13.20;6.10;;;;;;;21.29;61.74;101052.33;105907;1257;75081;-51
2023/05/15 06:02:16;;;;;;;24.20;7.10;;;;;;;21.19;61.83;101076.39;105878;1253;66970;-51
2023/05/15 06:04:43;;;;;;;13.60;6.80;;;;;;;21.12;61.60;101073.58;105774;1254;73923;-51
2023/05/15 06:07:11;;;;;;;18.00;6.90;;;;;;;20.92;62.32;101112.86;105760;1252;62885;-51
2023/05/15 06:09:38;;;;;;;20.10;6.90;;;;;;;20.87;62.70;101115.23;105802;1253;62911;-51
2023/05/15 06:12:07;;;;;;;20.40;7.00;;;;;;;20.77;63.02;101125.39;105877;1257;76664;-51
2023/05/15 06:14:34;;;;;;;20.60;6.90;;;;;;;20.77;63.19;101122.03;105950;1257;67212;-51
2023/05/15 06:17:02;;;;;;;21.40;6.70;;;;;;;20.83;63.35;101117.91;105836;1253;75611;-51
2023/05/15 06:19:29;;;;;;;19.00;6.90;;;;;;;20.90;62.86;101105.30;105801;1257;62520;-51
2023/05/15 06:21:56;;;;;;;21.40;6.80;;;;;;;20.94;62.65;101094.00;105942;1253;63057;-51
2023/05/15 06:24:23;;;;;;;13.40;6.20;;;;;;;20.98;61.83;101073.99;105587;1253;317380;-50
2023/05/15 06:28:05;;;;;;;16.80;6.90;;;;;;;21.12;62.06;101095.54;102685;1293;599670;-50
2023/05/15 06:30:32;;;;;;;27.50;7.30;;;;;;;21.09;62.66;101109.39;105087;1269;63110;-50
2023/05/15 06:32:59;;;;;;;11.50;6.80;;;;;;;21.11;62.29;101095.75;105198;1269;62311;-50
2023/05/15 06:35:27;;;;;;;19.50;6.40;;;;;;;21.24;61.54;101070.69;105178;1264;74684;-50
2023/05/15 06:37:53;;;;;;;30.80;7.10;;;;;;;21.36;61.18;101069.36;105072;1269;67371;-50
2023/05/15 06:40:24;;;;;;;18.20;7.10;;;;;;;21.40;60.05;101034.76;105091;1270;74174;-50
2023/05/15 06:42:52;;;;;;;15.20;6.40;;;;;;;21.36;59.81;101047.40;105096;1266;210061;-50
2023/05/15 06:45:19;;;;;;;10.00;6.40;;;;;;;21.40;60.50;101080.20;105239;1260;62804;-50
2023/05/15 06:47:46;;;;;;;11.50;6.20;;;;;;;21.50;59.16;101023.30;105241;1261;74132;-50
2023/05/15 06:50:13;;;;;;;14.00;6.40;;;;;;;21.61;58.88;101026.58;105254;1266;66703;-50
2023/05/15 06:52:40;;;;;;;16.50;6.50;;;;;;;21.73;57.90;100996.98;105231;1266;74921;-50
2023/05/15 06:55:07;;;;;;;16.00;5.80;;;;;;;21.85;58.42;101036.65;105225;1267;62822;-51
2023/05/15 06:57:34;;;;;;;15.90;5.70;;;;;;;22.08;58.08;101014.12;105299;1267;62802;-50
2023/05/15 07:00:01;;;;;;;17.50;5.50;;;;;;;22.25;57.13;100983.59;105247;1276;75277;-49
2023/05/15 07:02:28;;;;;;;13.30;5.20;;;;;;;22.47;55.93;100937.65;105274;1266;67193;-50
2023/05/15 07:04:55;;;;;;;13.20;5.50;;;;;;;22.71;55.35;100926.20;105284;1266;74573;-52
2023/05/15 07:07:22;;;;;;;16.40;5.60;;;;;;;22.84;54.50;100896.14;105224;1263;62280;-51
2023/05/15 07:09:49;;;;;;;11.00;4.60;;;;;;;22.87;53.48;100858.90;105236;1268;62804;-51
2023/05/15 07:12:16;;;;;;;10.40;4.30;;;;;;;22.94;53.08;100862.65;105683;1260;75662;-51
2023/05/15 07:14:43;;;;;;;16.60;4.80;;;;;;;23.14;53.20;100886.71;105702;1255;67452;-52
2023/05/15 07:17:10;;;;;;;17.50;6.00;;;;;;;23.30;52.41;100845.05;105667;1259;75201;-51
2023/05/15 07:19:38;;;;;;;9.10;4.90;;;;;;;23.36;51.43;100800.48;105691;1260;62190;-52
2023/05/15 07:22:05;;;;;;;15.10;4.70;;;;;;;23.25;50.96;100788.50;105672;1254;62751;-51
2023/05/15 07:24:32;;;;;;;10.80;4.70;;;;;;;23.10;50.79;100801.39;105677;1260;75723;-52
2023/05/15 07:26:59;;;;;;;14.20;5.00;;;;;;;23.19;51.64;100875.48;105699;1259;67178;-52
2023/05/15 07:29:26;;;;;;;18.50;4.90;;;;;;;23.34;50.58;100790.39;105640;1258;74944;-52
2023/05/15 07:31:52;;;;;;;18.40;4.70;;;;;;;23.47;50.28;100784.08;105631;1258;62832;-52
2023/05/15 07:34:20;;;;;;;12.20;4.50;;;;;;;23.64;49.41;100713.66;105697;1260;61827;-52
2023/05/15 07:36:47;;;;;;;15.20;4.80;;;;;;;23.88;48.64;100659.89;105663;1259;75486;-50
2023/05/15 07:39:14;;;;;;;7.80;4.60;;;;;;;23.98;48.29;100636.09;105588;1260;67114;-52
2023/05/15 07:41:41;;;;;;;12.50;4.90;;;;;;;24.06;48.45;100674.16;105361;1258;74368;-53
2023/05/15 07:44:09;;;;;;;17.50;4.20;;;;;;;24.23;48.26;100671.48;105622;1254;61751;-52
2023/05/15 07:46:37;;;;;;;17.30;4.90;;;;;;;24.54;46.98;100546.14;105671;1261;62772;-51
2023/05/15 07:49:05;;;;;;;21.10;4.60;;;;;;;24.69;46.01;100467.94;105686;1256;74957;-51
2023/05/15 07:51:32;;;;;;;17.00;4.40;;;;;;;24.77;45.70;100458.89;105632;1254;67146;-51
2023/05/15 07:53:58;;;;;;;11.40;4.60;;;;;;;24.76;45.48;100450.11;105675;1257;74291;-52
2023/05/15 07:56:25;;;;;;;16.30;4.50;;;;;;;24.89;45.08;100422.98;105619;1269;62735;-52
2023/05/15 07:58:52;;;;;;;19.90;3.90;;;;;;;25.04;43.85;100304.08;105719;1255;62889;-51
2023/05/15 08:01:20;;;;;;;10.30;3.50;;;;;;;25.18;40.88;99952.95;105656;1260;74934;-51
2023/05/15 08:03:47;;;;;;;22.10;4.10;;;;;;;25.32;40.28;99886.56;105661;1259;66372;-52
2023/05/15 08:06:15;;;;;;;11.10;4.20;;;;;;;25.58;42.28;100138.07;105623;1257;74472;-52
2023/05/15 08:08:42;;;;;;;13.10;3.90;;;;;;;25.71;42.63;100238.73;105675;1260;61832;-51
2023/05/15 08:11:09;;;;;;;16.50;3.80;;;;;;;25.78;41.98;100168.33;105645;1254;62836;-51
2023/05/15 08:13:36;;;;;;;13.00;4.60;;;;;;;25.86;42.39;100221.72;105648;1258;73831;-52
2023/05/15 08:16:04;;;;;;;18.80;4.90;;;;;;;25.99;42.24;100218.06;105686;1260;65850;-52
2023/05/15 08:18:31;;;;;;;12.00;4.00;;;;;;;25.95;41.31;100110.50;105662;1254;75125;-51
2023/05/15 08:20:58;;;;;;;20.70;4.40;;;;;;;25.90;41.84;100185.85;105643;1259;62883;-51
2023/05/15 08:23:25;;;;;;;19.20;4.40;;;;;;;26.14;41.99;100221.34;105664;1255;63074;-52
2023/05/15 08:25:52;;;;;;;15.60;3.90;;;;;;;26.21;39.91;99963.02;105646;1259;75758;-51
2023/05/15 08:28:19;;;;;;;15.40;4.00;;;;;;;26.15;40.02;99977.73;105671;1259;67357;-52
2023/05/15 08:30:46;;;;;;;20.00;4.20;;;;;;;26.32;39.55;99932.36;105681;1259;75253;-54
2023/05/15 08:33:13;;;;;;;14.10;3.90;;;;;;;26.22;40.08;99974.78;105667;1260;63136;-52
2023/05/15 08:35:40;;;;;;;12.10;3.70;;;;;;;26.36;40.24;100023.55;105691;1260;62368;-50
2023/05/15 08:38:08;;;;;;;15.40;3.70;;;;;;;26.49;39.25;99899.66;105688;1260;75936;-51
2023/05/15 08:40:35;;;;;;;14.20;3.70;;;;;;;26.66;40.20;100021.09;105723;1254;67140;-51
2023/05/15 08:43:12;;;;;;;13.70;3.90;;;;;;;26.99;38.02;99749.23;105719;1260;74060;-51
2023/05/15 08:45:40;;;;;;;6.20;3.30;;;;;;;27.27;37.14;99636.04;105708;1260;63605;-51
2023/05/15 08:48:13;;;;;;;13.60;3.30;;;;;;;27.36;36.41;99522.62;105696;1253;62820;-51
2023/05/15 08:50:40;;;;;;;14.20;2.80;;;;;;;27.30;36.65;99559.93;105711;1259;74823;-51
2023/05/15 08:53:07;;;;;;;7.30;3.10;;;;;;;27.37;36.73;99622.98;105687;1254;67266;-52
2023/05/15 08:55:34;;;;;;;7.70;2.90;;;;;;;27.31;36.36;99540.52;105748;1269;75441;-51
2023/05/15 08:58:01;;;;;;;7.40;3.50;;;;;;;27.19;35.93;99497.14;105690;1254;62880;-51
2023/05/15 09:00:28;;;;;;;10.10;2.10;;;;;;;27.28;35.84;99491.79;105646;1260;62080;-51
2023/05/15 09:03:01;;;;;;;7.80;2.20;;;;;;;27.60;32.75;99083.99;105674;1259;75622;-52
2023/05/15 09:05:28;;;;;;;5.90;2.20;;;;;;;27.79;31.67;98872.38;105723;1254;66626;-51
2023/05/15 09:07:56;;;;;;;5.00;1.90;;;;;;;28.01;31.36;98800.27;105704;1259;74888;-51
2023/05/15 09:10:23;;;;;;;9.70;2.10;;;;;;;28.18;30.02;98619.27;105781;1258;62606;-52
2023/05/15 09:12:50;;;;;;;12.10;2.20;;;;;;;28.23;29.76;98541.46;105696;1259;62908;-51
2023/05/15 09:15:20;;;;;;;11.20;2.10;;;;;;;28.29;30.63;98646.14;105718;1260;75511;-51
2023/05/15 09:17:48;;;;;;;9.50;2.40;;;;;;;28.59;30.23;98600.81;105704;1255;65805;-51
2023/05/15 09:20:30;;;;;;;8.30;2.10;;;;;;;28.84;29.43;98492.13;105775;1260;74504;-51
2023/05/15 09:22:58;;;;;;;8.20;1.70;;;;;;;28.90;29.94;98512.15;105709;1260;62866;-53
2023/05/15 09:25:39;;;;;;;8.90;2.70;;;;;;;28.75;29.47;98504.45;105691;1255;62522;-51
2023/05/15 09:28:08;;;;;;;7.00;3.00;;;;;;;28.45;31.51;98758.77;105608;1260;75950;-51
2023/05/15 09:30:40;;;;;;;6.50;2.40;;;;;;;28.47;32.05;98909.70;105670;1259;67583;-53
2023/05/15 09:33:08;;;;;;;12.00;3.10;;;;;;;28.66;31.60;98858.30;105635;1260;74969;-52
2023/05/15 09:35:36;;;;;;;10.40;2.90;;;;;;;28.73;30.96;98768.96;105658;1260;61843;-52
2023/05/15 09:38:10;;;;;;;9.80;3.20;;;;;;;28.53;30.40;98730.64;105631;1257;62612;-51
2023/05/15 09:40:37;;;;;;;11.10;3.30;;;;;;;28.22;31.51;98847.31;105671;1260;75270;-52
2023/05/15 09:43:04;;;;;;;11.30;3.00;;;;;;;28.18;31.21;98864.11;105575;1257;65447;-51
2023/05/15 09:45:31;;;;;;;14.70;2.80;;;;;;;28.18;32.13;98967.61;105636;1258;74126;-53
2023/05/15 09:47:59;;;;;;;5.60;2.30;;;;;;;28.30;31.34;98908.98;105634;1257;61366;-52
2023/05/15 09:50:35;;;;;;;7.30;2.70;;;;;;;28.10;29.65;98693.23;105631;1261;61383;-50
2023/05/15 09:53:02;;;;;;;14.70;2.60;;;;;;;27.88;29.06;98607.96;105671;1258;75173;-51
2023/05/15 09:55:33;;;;;;;10.00;2.00;;;;;;;27.88;30.28;98722.86;105680;1258;66543;-51
2023/05/15 09:58:07;;;;;;;10.20;2.60;;;;;;;28.05;28.77;98559.34;105647;1261;73652;-52
2023/05/15 10:00:34;;;;;;;11.40;2.50;;;;;;;28.02;29.05;98554.42;105644;1261;62854;-52
2023/05/15 10:03:02;;;;;;;9.50;2.30;;;;;;;28.22;29.76;98645.35;105611;1260;61485;-52
2023/05/15 10:05:29;;;;;;;7.30;2.10;;;;;;;28.45;29.48;98596.75;105657;1260;74855;-51
2023/05/15 10:08:09;;;;;;;9.30;2.70;;;;;;;28.58;29.37;98584.59;105616;1256;65414;-52
2023/05/15 10:10:36;;;;;;;19.60;2.60;;;;;;;28.62;28.98;98530.88;105603;1260;74208;-52
2023/05/15 10:13:04;;;;;;;12.50;2.60;;;;;;;28.64;28.88;98508.54;105593;1258;62333;-56
2023/05/15 10:15:32;;;;;;;10.20;2.50;;;;;;;28.56;28.43;98425.73;105475;1260;62668;-54
2023/05/15 10:17:59;;;;;;;17.20;2.50;;;;;;;28.36;28.03;98383.07;105433;1257;75315;-53
2023/05/15 10:20:27;;;;;;;14.40;2.40;;;;;;;28.14;28.81;98454.76;105515;1260;67653;-53
2023/05/15 10:22:55;;;;;;;7.60;2.00;;;;;;;28.22;30.56;98666.70;105684;1260;75209;-56
2023/05/15 10:25:30;;;;;;;18.00;2.50;;;;;;;28.76;30.24;98663.71;105713;1257;62164;-54
2023/05/15 10:27:57;;;;;;;5.00;2.30;;;;;;;29.35;29.20;98523.56;105668;1254;62465;-53
2023/05/15 10:30:24;;;;;;;9.20;2.20;;;;;;;29.67;28.64;98468.36;105672;1260;75486;-52
2023/05/15 10:32:52;;;;;;;14.20;2.90;;;;;;;29.71;28.61;98426.30;105337;1254;66582;-51
2023/05/15 10:35:19;;;;;;;4.60;2.20;;;;;;;29.63;27.84;98335.93;105690;1257;74088;-54
2023/05/15 10:37:47;;;;;;;12.60;2.60;;;;;;;29.41;28.10;98360.19;105643;1260;62775;-51
2023/05/15 10:40:16;;;;;;;15.50;2.80;;;;;;;29.37;27.41;98253.04;105648;1254;62458;-51
2023/05/15 10:42:44;;;;;;;9.70;2.40;;;;;;;29.37;27.23;98235.05;105642;1259;76200;-52
2023/05/15 10:45:11;;;;;;;12.90;2.60;;;;;;;29.49;27.10;98206.60;105711;1259;67494;-51
2023/05/15 10:47:39;;;;;;;12.50;2.50;;;;;;;29.53;26.16;98086.46;105652;1260;74252;-51
2023/05/15 10:50:07;;;;;;;7.50;2.20;;;;;;;29.32;26.89;98136.09;105669;1260;61952;-51
2023/05/15 10:52:35;;;;;;;13.90;2.20;;;;;;;29.39;26.14;98084.45;105639;1254;62785;-53
2023/05/15 10:55:05;;;;;;;7.90;1.80;;;;;;;29.41;25.51;97985.77;105735;1259;74924;-52
2023/05/15 10:57:32;;;;;;;7.20;2.20;;;;;;;29.62;25.66;97990.55;105686;1255;66329;-52
2023/05/15 11:00:00;;;;;;;6.50;2.30;;;;;;;29.82;25.97;98010.91;105630;1260;75181;-52
2023/05/15 11:02:32;;;;;;;10.70;2.00;;;;;;;29.90;26.64;98077.60;105631;1259;62358;-52
2023/05/15 11:05:00;;;;;;;7.70;2.20;;;;;;;29.99;25.53;97971.52;105636;1254;62697;-52
2023/05/15 11:07:27;;;;;;;5.00;1.80;;;;;;;29.80;24.91;97857.56;105707;1259;76526;-52
2023/05/15 11:09:54;;;;;;;11.90;2.50;;;;;;;29.63;25.16;97880.39;105726;1254;66502;-52
2023/05/15 11:12:22;;;;;;;9.60;2.40;;;;;;;29.65;25.07;97872.22;105641;1259;74806;-52
2023/05/15 11:14:55;;;;;;;7.60;2.10;;;;;;;29.69;24.87;97822.46;105674;1258;63017;-52
2023/05/15 11:17:22;;;;;;;12.50;2.10;;;;;;;29.70;24.37;97720.35;105672;1254;62503;-53